Details From CYFB - Iqaluit
To CYVM - QIKIQTARJUAQ
Flight Number -
Tags generated
Created
Modified
Stats Distance 300 nm / 555 km
Max Altitude 35,000 ft / 10,668 m
Waypoints 6
Social Downloads 0
Likes 0
Share VATSIM

Download

Looking for another format? Having issues loading an existing format? Contact us
Advertisement - Login to hide

Notes

Basic altitude profile: - Ascent Rate: 2500ft/min - Ascent Speed: 250kts - Cruise Altitude: 35000ft - Cruise Speed: 420kts - Descent Rate: 1500ft/min - Descent Speed: 250kts Options: - Use NATs: yes - Use PACOTS: yes - Use low airways: yes - Use high airways: yes

Route

CYFB RUDGA 6500N06500W 6600N06500W 6700N06500W CYVM

ID Type Via Altitude Latitude Longitude Leg Dist Tot Dist Heading (true) Name
O CYFB APT - 0 ft / 0 m 63.75657˚ -68.55606˚ - 0 nm - Iqaluit
RUDGA FIX - 35,000 ft / 10,668 m 64.33333˚ -65.00000˚ 99 nm 99 nm 68° / 71° -
6500N06500W LATLON - 33,200 ft / 10,119 m 65.00000˚ -65.00000˚ 40 nm 139 nm 0° / 360° -
6600N06500W LATLON - 21,300 ft / 6,492 m 66.00000˚ -65.00000˚ 60 nm 199 nm 0° / 360° -
6700N06500W LATLON - 8,500 ft / 2,591 m 67.00000˚ -65.00000˚ 60 nm 259 nm 0° / 360° -
O CYVM APT - 0 ft / 0 m 67.54624˚ -64.03071˚ 39 nm 299 nm 34° / 35° QIKIQTARJUAQ

Altitude Profile

Advertisement - Login to hide

Weather


0- 5 10 15 20 25 30 35+ Temperature / ° C

Clouds and Precipitation
Forecast for 2018-05-24 12:00 UTC. Updated 2 hours ago

Ground ~20,000 ft ~40,000 ft Winds

CYFB

Details ICAO CYFB (YFB)
Name Iqaluit
Region Canada
Timezone America/Iqaluit (UTC-4.0)
Stats Elevation 110 ft / 34 m (AMSL)
Location 63.756565° -68.556058°
Runways 1
Magnetic Variation 27.372° W

METAR

CYFB 241300Z 33004KT 30SM -SN OVC041 M04/M10 A2993 RMK SC8 SLP141

Decode

TAF

TAF TAF CYFB 241138Z 2412/2512 VRB03KT P6SM FEW020 BKN040 TEMPO 2412/2418 5SM -SN BKN020 OVC040 FM241800 19005KT P6SM BKN040 TEMPO 2418/2502 5SM -SN FM250300 32008KT P6SM BKN040 RMK NXT FCST BY 241800Z

Decode

Departure Runways

ID Width Length Bearing (true) Bearing (mag) Surface Threshold Offset Overrun Length
17 200 ft / 61 m 8,605 ft / 2,623 m 135.58° 162.95° Asphalt 0 ft / 0 m 210 ft / 64 m
35 200 ft / 61 m 8,605 ft / 2,623 m 315.62° 342.99° Asphalt 0 ft / 0 m 243 ft / 74 m

CYVM

Details ICAO CYVM (YVM)
Name QIKIQTARJUAQ
Region Canada
Timezone Unknown (UTC+0.0)
Stats Elevation 21 ft / 6 m (AMSL)
Location 67.546236° -64.030706°
Runways 1
Magnetic Variation 31.936° W

METAR

CYVM 241300Z 19007KT 15SM FEW110 BKN250 M04/M08 A2981 RMK AC1CC4 -1.0/-9.9/0.0/64 SNW COV/MEDIUM PACK SLP097

Decode

TAF

TAF CYVM 241238Z 2413/2501 VRB03KT P6SM SKC BECMG 2414/2416 02007KT RMK FCST BASED ON AUTO OBS. NXT FCST BY 241900Z

Decode

Destination Runways

ID Width Length Bearing (true) Bearing (mag) Surface Threshold Offset Overrun Length
03T 100 ft / 30 m 3,741 ft / 1,140 m 33.20° 65.14° Gravel 0 ft / 0 m 0 ft / 0 m
21T 100 ft / 30 m 3,741 ft / 1,140 m 213.21° 245.15° Gravel 0 ft / 0 m 0 ft / 0 m

Popular Alternatives